sensor_id;sensor_type;location;lat;lon;timestamp;temperature;humidity
42201;DHT22;27869;51.442;7.540;2022-10-16T00:01:05;13.10;99.90
42201;DHT22;27869;51.442;7.540;2022-10-16T00:03:32;13.00;99.90
42201;DHT22;27869;51.442;7.540;2022-10-16T00:06:00;13.00;99.90
42201;DHT22;27869;51.442;7.540;2022-10-16T00:08:28;13.00;99.90
42201;DHT22;27869;51.442;7.540;2022-10-16T00:10:59;13.00;99.90
42201;DHT22;27869;51.442;7.540;2022-10-16T00:13:27;13.00;99.90
42201;DHT22;27869;51.442;7.540;2022-10-16T00:15:55;12.90;99.90
42201;DHT22;27869;51.442;7.540;2022-10-16T00:18:22;12.90;99.90
42201;DHT22;27869;51.442;7.540;2022-10-16T00:20:49;12.90;99.90
42201;DHT22;27869;51.442;7.540;2022-10-16T00:23:16;12.90;99.90
42201;DHT22;27869;51.442;7.540;2022-10-16T00:25:43;12.90;99.90
42201;DHT22;27869;51.442;7.540;2022-10-16T00:28:10;12.90;99.90
42201;DHT22;27869;51.442;7.540;2022-10-16T00:30:39;12.90;99.90
42201;DHT22;27869;51.442;7.540;2022-10-16T00:33:06;12.80;99.90
42201;DHT22;27869;51.442;7.540;2022-10-16T00:35:33;12.80;99.90
42201;DHT22;27869;51.442;7.540;2022-10-16T00:38:00;12.80;99.90
42201;DHT22;27869;51.442;7.540;2022-10-16T00:40:27;12.80;99.90
42201;DHT22;27869;51.442;7.540;2022-10-16T00:42:55;12.80;99.90
42201;DHT22;27869;51.442;7.540;2022-10-16T00:45:21;12.80;99.90
42201;DHT22;27869;51.442;7.540;2022-10-16T00:47:51;12.80;99.90
42201;DHT22;27869;51.442;7.540;2022-10-16T00:50:22;12.70;99.90
42201;DHT22;27869;51.442;7.540;2022-10-16T00:52:51;12.70;99.90
42201;DHT22;27869;51.442;7.540;2022-10-16T00:55:19;12.70;99.90
42201;DHT22;27869;51.442;7.540;2022-10-16T00:57:46;12.70;99.90
42201;DHT22;27869;51.442;7.540;2022-10-16T01:00:17;12.70;99.90
42201;DHT22;27869;51.442;7.540;2022-10-16T01:02:53;12.60;99.90
42201;DHT22;27869;51.442;7.540;2022-10-16T01:05:21;12.60;99.90
42201;DHT22;27869;51.442;7.540;2022-10-16T01:07:57;12.60;99.90
42201;DHT22;27869;51.442;7.540;2022-10-16T01:10:30;12.50;99.90
42201;DHT22;27869;51.442;7.540;2022-10-16T01:13:04;12.50;99.90
42201;DHT22;27869;51.442;7.540;2022-10-16T01:15:35;12.50;99.90
42201;DHT22;27869;51.442;7.540;2022-10-16T01:18:08;12.50;99.90
42201;DHT22;27869;51.442;7.540;2022-10-16T01:20:42;12.50;99.90
42201;DHT22;27869;51.442;7.540;2022-10-16T01:23:20;12.50;99.90
42201;DHT22;27869;51.442;7.540;2022-10-16T01:26:02;12.50;99.90
42201;DHT22;27869;51.442;7.540;2022-10-16T01:28:36;12.50;99.90
42201;DHT22;27869;51.442;7.540;2022-10-16T01:31:06;12.50;99.90
42201;DHT22;27869;51.442;7.540;2022-10-16T01:33:37;12.50;99.90
42201;DHT22;27869;51.442;7.540;2022-10-16T01:36:10;12.50;99.90
42201;DHT22;27869;51.442;7.540;2022-10-16T01:38:39;12.50;99.90
42201;DHT22;27869;51.442;7.540;2022-10-16T01:41:09;12.50;99.90
42201;DHT22;27869;51.442;7.540;2022-10-16T01:43:42;12.50;99.90
42201;DHT22;27869;51.442;7.540;2022-10-16T01:46:14;12.50;99.90
42201;DHT22;27869;51.442;7.540;2022-10-16T01:48:42;12.50;99.90
42201;DHT22;27869;51.442;7.540;2022-10-16T01:51:11;12.50;99.90
42201;DHT22;27869;51.442;7.540;2022-10-16T01:53:39;12.50;99.90
42201;DHT22;27869;51.442;7.540;2022-10-16T01:56:09;12.50;99.90
42201;DHT22;27869;51.442;7.540;2022-10-16T01:58:42;12.50;99.90
42201;DHT22;27869;51.442;7.540;2022-10-16T02:01:11;12.50;99.90
42201;DHT22;27869;51.442;7.540;2022-10-16T02:03:42;12.50;99.90
42201;DHT22;27869;51.442;7.540;2022-10-16T02:06:09;12.50;99.90
42201;DHT22;27869;51.442;7.540;2022-10-16T02:08:37;12.50;99.90
42201;DHT22;27869;51.442;7.540;2022-10-16T02:11:06;12.50;99.90
42201;DHT22;27869;51.442;7.540;2022-10-16T02:13:35;12.50;99.90
42201;DHT22;27869;51.442;7.540;2022-10-16T02:16:06;12.50;99.90
42201;DHT22;27869;51.442;7.540;2022-10-16T02:18:33;12.50;99.90
42201;DHT22;27869;51.442;7.540;2022-10-16T02:21:04;12.40;99.90
42201;DHT22;27869;51.442;7.540;2022-10-16T02:23:37;12.40;99.90
42201;DHT22;27869;51.442;7.540;2022-10-16T02:26:09;12.40;99.90
42201;DHT22;27869;51.442;7.540;2022-10-16T02:28:42;12.40;99.90
42201;DHT22;27869;51.442;7.540;2022-10-16T02:31:16;12.40;99.90
42201;DHT22;27869;51.442;7.540;2022-10-16T02:33:45;12.40;99.90
42201;DHT22;27869;51.442;7.540;2022-10-16T02:36:12;12.40;99.90
42201;DHT22;27869;51.442;7.540;2022-10-16T02:38:40;12.40;99.90
42201;DHT22;27869;51.442;7.540;2022-10-16T02:41:07;12.40;99.90
42201;DHT22;27869;51.442;7.540;2022-10-16T02:43:34;12.40;99.90
42201;DHT22;27869;51.442;7.540;2022-10-16T02:46:01;12.40;99.90
42201;DHT22;27869;51.442;7.540;2022-10-16T02:48:29;12.30;99.90
42201;DHT22;27869;51.442;7.540;2022-10-16T02:50:56;12.40;99.90
42201;DHT22;27869;51.442;7.540;2022-10-16T02:53:23;12.30;99.90
42201;DHT22;27869;51.442;7.540;2022-10-16T02:55:50;12.30;99.90
42201;DHT22;27869;51.442;7.540;2022-10-16T02:58:17;12.30;99.90
42201;DHT22;27869;51.442;7.540;2022-10-16T03:00:43;12.30;99.90
42201;DHT22;27869;51.442;7.540;2022-10-16T03:03:11;12.30;99.90
42201;DHT22;27869;51.442;7.540;2022-10-16T03:05:39;12.30;99.90
42201;DHT22;27869;51.442;7.540;2022-10-16T03:08:06;12.30;99.90
42201;DHT22;27869;51.442;7.540;2022-10-16T03:10:33;12.30;99.90
42201;DHT22;27869;51.442;7.540;2022-10-16T03:13:00;12.40;99.90
42201;DHT22;27869;51.442;7.540;2022-10-16T03:15:27;12.40;99.90
42201;DHT22;27869;51.442;7.540;2022-10-16T03:17:54;12.40;99.90
42201;DHT22;27869;51.442;7.540;2022-10-16T03:20:21;12.40;99.90
42201;DHT22;27869;51.442;7.540;2022-10-16T03:22:49;12.50;99.90
42201;DHT22;27869;51.442;7.540;2022-10-16T03:25:16;12.50;99.90
42201;DHT22;27869;51.442;7.540;2022-10-16T03:27:43;12.50;99.90
42201;DHT22;27869;51.442;7.540;2022-10-16T03:30:11;12.50;99.90
42201;DHT22;27869;51.442;7.540;2022-10-16T03:32:38;12.60;99.90
42201;DHT22;27869;51.442;7.540;2022-10-16T03:35:05;12.60;99.90
42201;DHT22;27869;51.442;7.540;2022-10-16T03:37:32;12.60;99.90
42201;DHT22;27869;51.442;7.540;2022-10-16T03:40:01;12.60;99.90
42201;DHT22;27869;51.442;7.540;2022-10-16T03:42:28;12.70;99.90
42201;DHT22;27869;51.442;7.540;2022-10-16T03:44:54;12.70;99.90
42201;DHT22;27869;51.442;7.540;2022-10-16T03:47:21;12.70;99.90
42201;DHT22;27869;51.442;7.540;2022-10-16T03:49:49;12.70;99.90
42201;DHT22;27869;51.442;7.540;2022-10-16T03:52:16;12.70;99.90
42201;DHT22;27869;51.442;7.540;2022-10-16T03:54:43;12.70;99.90
42201;DHT22;27869;51.442;7.540;2022-10-16T03:57:12;12.70;99.90
42201;DHT22;27869;51.442;7.540;2022-10-16T03:59:38;12.70;99.90
42201;DHT22;27869;51.442;7.540;2022-10-16T04:02:05;12.80;99.90
42201;DHT22;27869;51.442;7.540;2022-10-16T04:04:32;12.70;99.90
42201;DHT22;27869;51.442;7.540;2022-10-16T04:06:59;12.80;99.90
42201;DHT22;27869;51.442;7.540;2022-10-16T04:09:26;12.80;99.90
42201;DHT22;27869;51.442;7.540;2022-10-16T04:11:53;12.80;99.90
42201;DHT22;27869;51.442;7.540;2022-10-16T04:14:21;12.80;99.90
42201;DHT22;27869;51.442;7.540;2022-10-16T04:16:48;12.80;99.90
42201;DHT22;27869;51.442;7.540;2022-10-16T04:19:15;12.80;99.90
42201;DHT22;27869;51.442;7.540;2022-10-16T04:21:42;12.80;99.90
42201;DHT22;27869;51.442;7.540;2022-10-16T04:24:09;12.70;99.90
42201;DHT22;27869;51.442;7.540;2022-10-16T04:26:36;12.80;99.90
42201;DHT22;27869;51.442;7.540;2022-10-16T04:29:03;12.80;99.90
42201;DHT22;27869;51.442;7.540;2022-10-16T04:31:33;12.80;99.90
42201;DHT22;27869;51.442;7.540;2022-10-16T04:33:59;12.80;99.90
42201;DHT22;27869;51.442;7.540;2022-10-16T04:36:26;12.70;99.90
42201;DHT22;27869;51.442;7.540;2022-10-16T04:38:53;12.70;99.90
42201;DHT22;27869;51.442;7.540;2022-10-16T04:41:20;12.70;99.90
42201;DHT22;27869;51.442;7.540;2022-10-16T04:43:47;12.70;99.90
42201;DHT22;27869;51.442;7.540;2022-10-16T04:46:14;12.70;99.90
42201;DHT22;27869;51.442;7.540;2022-10-16T04:48:42;12.70;99.90
42201;DHT22;27869;51.442;7.540;2022-10-16T04:51:09;12.70;99.90
42201;DHT22;27869;51.442;7.540;2022-10-16T04:53:36;12.70;99.90
42201;DHT22;27869;51.442;7.540;2022-10-16T04:56:03;12.70;99.90
42201;DHT22;27869;51.442;7.540;2022-10-16T04:58:30;12.70;99.90
42201;DHT22;27869;51.442;7.540;2022-10-16T05:00:57;12.70;99.90
42201;DHT22;27869;51.442;7.540;2022-10-16T05:03:24;12.70;99.90
42201;DHT22;27869;51.442;7.540;2022-10-16T05:05:52;12.70;99.90
42201;DHT22;27869;51.442;7.540;2022-10-16T05:08:19;12.70;99.90
42201;DHT22;27869;51.442;7.540;2022-10-16T05:10:46;12.70;99.90
42201;DHT22;27869;51.442;7.540;2022-10-16T05:13:13;12.70;99.90
42201;DHT22;27869;51.442;7.540;2022-10-16T05:15:39;12.70;99.90
42201;DHT22;27869;51.442;7.540;2022-10-16T05:18:06;12.70;99.90
42201;DHT22;27869;51.442;7.540;2022-10-16T05:20:33;12.70;99.90
42201;DHT22;27869;51.442;7.540;2022-10-16T05:23:02;12.70;99.90
42201;DHT22;27869;51.442;7.540;2022-10-16T05:25:29;12.70;99.90
42201;DHT22;27869;51.442;7.540;2022-10-16T05:27:56;12.70;99.90
42201;DHT22;27869;51.442;7.540;2022-10-16T05:30:23;12.70;99.90
42201;DHT22;27869;51.442;7.540;2022-10-16T05:32:50;12.60;99.90
42201;DHT22;27869;51.442;7.540;2022-10-16T05:35:18;12.70;99.90
42201;DHT22;27869;51.442;7.540;2022-10-16T05:37:46;12.70;99.90
42201;DHT22;27869;51.442;7.540;2022-10-16T05:40:14;12.70;99.90
42201;DHT22;27869;51.442;7.540;2022-10-16T05:42:42;12.70;99.90
42201;DHT22;27869;51.442;7.540;2022-10-16T05:45:10;12.70;99.90
42201;DHT22;27869;51.442;7.540;2022-10-16T05:47:37;12.70;99.90
42201;DHT22;27869;51.442;7.540;2022-10-16T05:50:05;12.70;99.90
42201;DHT22;27869;51.442;7.540;2022-10-16T05:52:32;12.70;99.90
42201;DHT22;27869;51.442;7.540;2022-10-16T05:54:59;12.80;99.90
42201;DHT22;27869;51.442;7.540;2022-10-16T05:57:27;12.80;99.90
42201;DHT22;27869;51.442;7.540;2022-10-16T05:59:54;12.80;99.90
42201;DHT22;27869;51.442;7.540;2022-10-16T06:02:21;12.80;99.90
42201;DHT22;27869;51.442;7.540;2022-10-16T06:04:47;12.80;99.90
42201;DHT22;27869;51.442;7.540;2022-10-16T06:07:14;12.80;99.90
42201;DHT22;27869;51.442;7.540;2022-10-16T06:09:41;12.80;99.90
42201;DHT22;27869;51.442;7.540;2022-10-16T06:12:08;12.80;99.90
42201;DHT22;27869;51.442;7.540;2022-10-16T06:14:36;12.80;99.90
42201;DHT22;27869;51.442;7.540;2022-10-16T06:17:03;12.80;99.90
42201;DHT22;27869;51.442;7.540;2022-10-16T06:19:31;12.80;99.90
42201;DHT22;27869;51.442;7.540;2022-10-16T06:21:58;12.80;99.90
42201;DHT22;27869;51.442;7.540;2022-10-16T06:24:25;12.80;99.90
42201;DHT22;27869;51.442;7.540;2022-10-16T06:26:52;12.90;99.90
42201;DHT22;27869;51.442;7.540;2022-10-16T06:29:19;12.90;99.90
42201;DHT22;27869;51.442;7.540;2022-10-16T06:31:47;12.90;99.90
42201;DHT22;27869;51.442;7.540;2022-10-16T06:34:14;12.90;99.90
42201;DHT22;27869;51.442;7.540;2022-10-16T06:36:41;12.90;99.90
42201;DHT22;27869;51.442;7.540;2022-10-16T06:39:08;12.90;99.90
42201;DHT22;27869;51.442;7.540;2022-10-16T06:41:35;13.00;99.90
42201;DHT22;27869;51.442;7.540;2022-10-16T06:44:05;13.00;99.90
42201;DHT22;27869;51.442;7.540;2022-10-16T06:46:32;13.00;99.90
42201;DHT22;27869;51.442;7.540;2022-10-16T06:49:00;13.00;99.90
42201;DHT22;27869;51.442;7.540;2022-10-16T06:51:27;13.00;99.90
42201;DHT22;27869;51.442;7.540;2022-10-16T06:53:55;13.10;99.90
42201;DHT22;27869;51.442;7.540;2022-10-16T06:56:24;13.10;99.90
42201;DHT22;27869;51.442;7.540;2022-10-16T06:58:52;13.10;99.90
42201;DHT22;27869;51.442;7.540;2022-10-16T07:01:20;13.20;99.90
42201;DHT22;27869;51.442;7.540;2022-10-16T07:03:48;13.20;99.90
42201;DHT22;27869;51.442;7.540;2022-10-16T07:06:17;13.20;99.90
42201;DHT22;27869;51.442;7.540;2022-10-16T07:08:46;13.20;99.90
42201;DHT22;27869;51.442;7.540;2022-10-16T07:11:15;13.30;99.90
42201;DHT22;27869;51.442;7.540;2022-10-16T07:13:45;13.30;99.90
42201;DHT22;27869;51.442;7.540;2022-10-16T07:16:14;13.40;99.90
42201;DHT22;27869;51.442;7.540;2022-10-16T07:18:41;13.40;99.90
42201;DHT22;27869;51.442;7.540;2022-10-16T07:21:12;13.40;99.90
42201;DHT22;27869;51.442;7.540;2022-10-16T07:23:40;13.50;99.90
42201;DHT22;27869;51.442;7.540;2022-10-16T07:26:08;13.50;99.90
42201;DHT22;27869;51.442;7.540;2022-10-16T07:28:35;13.60;99.90
42201;DHT22;27869;51.442;7.540;2022-10-16T07:31:03;13.70;99.90
42201;DHT22;27869;51.442;7.540;2022-10-16T07:33:31;13.70;99.90
42201;DHT22;27869;51.442;7.540;2022-10-16T07:35:58;13.80;99.90
42201;DHT22;27869;51.442;7.540;2022-10-16T07:38:25;13.80;99.90
42201;DHT22;27869;51.442;7.540;2022-10-16T07:40:57;13.80;99.90
42201;DHT22;27869;51.442;7.540;2022-10-16T07:43:25;13.90;99.90
42201;DHT22;27869;51.442;7.540;2022-10-16T07:45:52;13.90;99.90
42201;DHT22;27869;51.442;7.540;2022-10-16T07:48:19;14.00;99.90
42201;DHT22;27869;51.442;7.540;2022-10-16T07:50:46;14.00;99.90
42201;DHT22;27869;51.442;7.540;2022-10-16T07:53:14;14.00;99.90
42201;DHT22;27869;51.442;7.540;2022-10-16T07:55:41;14.10;99.90
42201;DHT22;27869;51.442;7.540;2022-10-16T07:58:09;14.10;99.90
42201;DHT22;27869;51.442;7.540;2022-10-16T08:00:37;14.10;99.90
42201;DHT22;27869;51.442;7.540;2022-10-16T08:03:04;14.10;99.90
42201;DHT22;27869;51.442;7.540;2022-10-16T08:05:32;14.20;99.90
42201;DHT22;27869;51.442;7.540;2022-10-16T08:08:00;14.20;99.90
42201;DHT22;27869;51.442;7.540;2022-10-16T08:10:28;14.20;99.90
42201;DHT22;27869;51.442;7.540;2022-10-16T08:12:55;14.20;99.90
42201;DHT22;27869;51.442;7.540;2022-10-16T08:15:23;14.30;99.90
42201;DHT22;27869;51.442;7.540;2022-10-16T08:18:01;14.30;99.90
42201;DHT22;27869;51.442;7.540;2022-10-16T08:20:29;14.40;99.90
42201;DHT22;27869;51.442;7.540;2022-10-16T08:22:56;14.50;99.90
42201;DHT22;27869;51.442;7.540;2022-10-16T08:25:23;14.60;99.90
42201;DHT22;27869;51.442;7.540;2022-10-16T08:27:51;14.70;99.90
42201;DHT22;27869;51.442;7.540;2022-10-16T08:30:19;14.80;99.90
42201;DHT22;27869;51.442;7.540;2022-10-16T08:32:47;14.90;99.90
42201;DHT22;27869;51.442;7.540;2022-10-16T08:35:15;15.00;99.90
42201;DHT22;27869;51.442;7.540;2022-10-16T08:37:42;15.10;99.90
42201;DHT22;27869;51.442;7.540;2022-10-16T08:40:17;15.10;99.90
42201;DHT22;27869;51.442;7.540;2022-10-16T08:42:51;15.20;99.90
42201;DHT22;27869;51.442;7.540;2022-10-16T08:45:29;15.30;99.90
42201;DHT22;27869;51.442;7.540;2022-10-16T08:48:14;15.40;99.90
42201;DHT22;27869;51.442;7.540;2022-10-16T08:50:43;15.50;99.90
42201;DHT22;27869;51.442;7.540;2022-10-16T08:53:15;15.60;99.90
42201;DHT22;27869;51.442;7.540;2022-10-16T08:55:46;15.60;99.90
42201;DHT22;27869;51.442;7.540;2022-10-16T08:58:17;15.70;99.90
42201;DHT22;27869;51.442;7.540;2022-10-16T09:00:48;15.80;99.90
42201;DHT22;27869;51.442;7.540;2022-10-16T09:06:17;16.00;99.90
42201;DHT22;27869;51.442;7.540;2022-10-16T09:08:58;16.00;99.90
42201;DHT22;27869;51.442;7.540;2022-10-16T09:11:34;16.10;99.90
42201;DHT22;27869;51.442;7.540;2022-10-16T09:14:20;16.20;99.90
42201;DHT22;27869;51.442;7.540;2022-10-16T09:16:53;16.20;99.90
42201;DHT22;27869;51.442;7.540;2022-10-16T09:19:31;16.30;99.90
42201;DHT22;27869;51.442;7.540;2022-10-16T09:21:59;16.40;99.90
42201;DHT22;27869;51.442;7.540;2022-10-16T09:24:29;16.40;99.90
42201;DHT22;27869;51.442;7.540;2022-10-16T09:26:56;16.40;99.90
42201;DHT22;27869;51.442;7.540;2022-10-16T09:29:23;16.50;99.90
42201;DHT22;27869;51.442;7.540;2022-10-16T09:31:51;16.60;99.90
42201;DHT22;27869;51.442;7.540;2022-10-16T09:34:27;16.60;99.90
42201;DHT22;27869;51.442;7.540;2022-10-16T09:36:57;16.70;99.90
42201;DHT22;27869;51.442;7.540;2022-10-16T09:39:25;16.80;99.90
42201;DHT22;27869;51.442;7.540;2022-10-16T09:41:52;16.80;99.90
42201;DHT22;27869;51.442;7.540;2022-10-16T09:44:24;16.90;99.90
42201;DHT22;27869;51.442;7.540;2022-10-16T09:47:01;16.90;99.90
42201;DHT22;27869;51.442;7.540;2022-10-16T09:49:30;17.00;99.90
42201;DHT22;27869;51.442;7.540;2022-10-16T09:52:04;17.10;99.90
42201;DHT22;27869;51.442;7.540;2022-10-16T09:54:31;17.10;99.90
42201;DHT22;27869;51.442;7.540;2022-10-16T09:57:05;17.20;99.90
42201;DHT22;27869;51.442;7.540;2022-10-16T09:59:32;17.30;99.90
42201;DHT22;27869;51.442;7.540;2022-10-16T10:02:02;17.40;99.90
42201;DHT22;27869;51.442;7.540;2022-10-16T10:04:40;17.40;99.90
42201;DHT22;27869;51.442;7.540;2022-10-16T10:07:17;17.50;99.90
42201;DHT22;27869;51.442;7.540;2022-10-16T10:09:45;17.60;99.90
42201;DHT22;27869;51.442;7.540;2022-10-16T10:12:20;17.50;99.90
42201;DHT22;27869;51.442;7.540;2022-10-16T10:14:49;17.60;99.90
42201;DHT22;27869;51.442;7.540;2022-10-16T10:17:19;17.60;99.90
42201;DHT22;27869;51.442;7.540;2022-10-16T10:19:50;17.60;99.90
42201;DHT22;27869;51.442;7.540;2022-10-16T10:22:23;17.60;99.90
42201;DHT22;27869;51.442;7.540;2022-10-16T10:25:07;17.60;99.90
42201;DHT22;27869;51.442;7.540;2022-10-16T10:27:43;17.60;99.90
42201;DHT22;27869;51.442;7.540;2022-10-16T10:30:18;17.60;99.90
42201;DHT22;27869;51.442;7.540;2022-10-16T10:32:53;17.70;99.90
42201;DHT22;27869;51.442;7.540;2022-10-16T10:35:32;17.80;99.90
42201;DHT22;27869;51.442;7.540;2022-10-16T10:38:12;17.90;99.90
42201;DHT22;27869;51.442;7.540;2022-10-16T10:40:48;18.00;99.90
42201;DHT22;27869;51.442;7.540;2022-10-16T10:43:28;18.00;99.90
42201;DHT22;27869;51.442;7.540;2022-10-16T10:46:00;18.10;99.90
42201;DHT22;27869;51.442;7.540;2022-10-16T10:48:54;18.20;99.90
42201;DHT22;27869;51.442;7.540;2022-10-16T10:51:31;18.30;99.90
42201;DHT22;27869;51.442;7.540;2022-10-16T10:54:09;18.30;99.90
42201;DHT22;27869;51.442;7.540;2022-10-16T10:56:44;18.30;99.90
42201;DHT22;27869;51.442;7.540;2022-10-16T10:59:46;18.30;99.90
42201;DHT22;27869;51.442;7.540;2022-10-16T11:02:21;18.30;99.90
42201;DHT22;27869;51.442;7.540;2022-10-16T11:08:02;18.30;99.90
42201;DHT22;27869;51.442;7.540;2022-10-16T11:10:38;18.40;99.90
42201;DHT22;27869;51.442;7.540;2022-10-16T11:13:19;18.50;99.90
42201;DHT22;27869;51.442;7.540;2022-10-16T11:15:48;18.50;99.90
42201;DHT22;27869;51.442;7.540;2022-10-16T11:18:21;18.50;99.90
42201;DHT22;27869;51.442;7.540;2022-10-16T11:20:51;18.50;99.90
42201;DHT22;27869;51.442;7.540;2022-10-16T11:23:23;18.60;99.90
42201;DHT22;27869;51.442;7.540;2022-10-16T11:25:52;18.50;99.90
42201;DHT22;27869;51.442;7.540;2022-10-16T11:28:24;18.60;99.90
42201;DHT22;27869;51.442;7.540;2022-10-16T11:30:57;18.60;99.90
42201;DHT22;27869;51.442;7.540;2022-10-16T11:33:29;18.60;99.90
42201;DHT22;27869;51.442;7.540;2022-10-16T11:36:07;18.60;99.90
42201;DHT22;27869;51.442;7.540;2022-10-16T11:38:42;18.60;99.90
42201;DHT22;27869;51.442;7.540;2022-10-16T11:41:16;18.60;99.90
42201;DHT22;27869;51.442;7.540;2022-10-16T11:43:50;18.60;99.90
42201;DHT22;27869;51.442;7.540;2022-10-16T11:46:21;18.70;99.90
42201;DHT22;27869;51.442;7.540;2022-10-16T11:48:54;18.70;99.90
42201;DHT22;27869;51.442;7.540;2022-10-16T11:51:27;18.70;99.90
42201;DHT22;27869;51.442;7.540;2022-10-16T11:54:02;18.80;99.90
42201;DHT22;27869;51.442;7.540;2022-10-16T11:56:32;18.80;99.90
42201;DHT22;27869;51.442;7.540;2022-10-16T11:59:05;18.80;99.90
42201;DHT22;27869;51.442;7.540;2022-10-16T12:01:40;18.80;99.90
42201;DHT22;27869;51.442;7.540;2022-10-16T12:04:19;18.80;99.90
42201;DHT22;27869;51.442;7.540;2022-10-16T12:06:52;18.70;99.90
42201;DHT22;27869;51.442;7.540;2022-10-16T12:09:27;18.70;99.90
42201;DHT22;27869;51.442;7.540;2022-10-16T12:11:54;18.70;99.90
42201;DHT22;27869;51.442;7.540;2022-10-16T12:14:34;18.70;99.90
42201;DHT22;27869;51.442;7.540;2022-10-16T12:17:03;18.70;99.90
42201;DHT22;27869;51.442;7.540;2022-10-16T12:19:32;18.70;99.90
42201;DHT22;27869;51.442;7.540;2022-10-16T12:22:00;18.70;99.90
42201;DHT22;27869;51.442;7.540;2022-10-16T12:24:35;18.80;99.90
42201;DHT22;27869;51.442;7.540;2022-10-16T12:27:03;18.70;99.90
42201;DHT22;27869;51.442;7.540;2022-10-16T12:29:36;18.80;99.90
42201;DHT22;27869;51.442;7.540;2022-10-16T12:32:06;18.70;99.90
42201;DHT22;27869;51.442;7.540;2022-10-16T12:34:45;18.70;99.90
42201;DHT22;27869;51.442;7.540;2022-10-16T12:37:18;18.70;99.90
42201;DHT22;27869;51.442;7.540;2022-10-16T12:39:49;18.70;99.90
42201;DHT22;27869;51.442;7.540;2022-10-16T12:42:31;18.80;99.90
42201;DHT22;27869;51.442;7.540;2022-10-16T12:44:59;18.80;99.90
42201;DHT22;27869;51.442;7.540;2022-10-16T12:47:38;18.80;99.90
42201;DHT22;27869;51.442;7.540;2022-10-16T12:50:23;18.80;99.90
42201;DHT22;27869;51.442;7.540;2022-10-16T12:52:51;18.80;99.90
42201;DHT22;27869;51.442;7.540;2022-10-16T12:55:21;18.80;99.90
42201;DHT22;27869;51.442;7.540;2022-10-16T12:58:01;18.80;99.90
42201;DHT22;27869;51.442;7.540;2022-10-16T13:00:35;18.90;99.90
42201;DHT22;27869;51.442;7.540;2022-10-16T13:03:38;18.90;99.90
42201;DHT22;27869;51.442;7.540;2022-10-16T13:06:19;18.90;99.90
42201;DHT22;27869;51.442;7.540;2022-10-16T13:09:09;18.90;99.90
42201;DHT22;27869;51.442;7.540;2022-10-16T13:11:52;18.90;99.90
42201;DHT22;27869;51.442;7.540;2022-10-16T13:14:37;18.90;99.90
42201;DHT22;27869;51.442;7.540;2022-10-16T13:17:14;18.80;99.90
42201;DHT22;27869;51.442;7.540;2022-10-16T13:19:47;18.80;99.90
42201;DHT22;27869;51.442;7.540;2022-10-16T13:22:22;18.90;99.90
42201;DHT22;27869;51.442;7.540;2022-10-16T13:25:01;18.80;99.90
42201;DHT22;27869;51.442;7.540;2022-10-16T13:27:37;18.80;99.90
42201;DHT22;27869;51.442;7.540;2022-10-16T13:30:12;18.90;99.90
42201;DHT22;27869;51.442;7.540;2022-10-16T13:32:43;18.90;99.90
42201;DHT22;27869;51.442;7.540;2022-10-16T13:35:22;18.90;99.90
42201;DHT22;27869;51.442;7.540;2022-10-16T13:37:49;18.90;99.90
42201;DHT22;27869;51.442;7.540;2022-10-16T13:40:22;18.90;99.90
42201;DHT22;27869;51.442;7.540;2022-10-16T13:42:51;18.90;99.90
42201;DHT22;27869;51.442;7.540;2022-10-16T13:45:20;18.90;99.90
42201;DHT22;27869;51.442;7.540;2022-10-16T13:47:47;18.80;99.90
42201;DHT22;27869;51.442;7.540;2022-10-16T13:50:16;18.80;99.90
42201;DHT22;27869;51.442;7.540;2022-10-16T13:52:44;18.80;99.90
42201;DHT22;27869;51.442;7.540;2022-10-16T13:55:12;18.80;99.90
42201;DHT22;27869;51.442;7.540;2022-10-16T13:57:39;18.80;99.90
42201;DHT22;27869;51.442;7.540;2022-10-16T14:00:20;18.80;99.90
42201;DHT22;27869;51.442;7.540;2022-10-16T14:02:52;18.80;99.90
42201;DHT22;27869;51.442;7.540;2022-10-16T14:05:19;18.80;99.90
42201;DHT22;27869;51.442;7.540;2022-10-16T14:07:49;18.70;99.90
42201;DHT22;27869;51.442;7.540;2022-10-16T14:10:22;18.70;99.90
42201;DHT22;27869;51.442;7.540;2022-10-16T14:13:02;18.70;99.90
42201;DHT22;27869;51.442;7.540;2022-10-16T14:15:33;18.70;99.90
42201;DHT22;27869;51.442;7.540;2022-10-16T14:18:01;18.70;99.90
42201;DHT22;27869;51.442;7.540;2022-10-16T14:20:30;18.70;99.90
42201;DHT22;27869;51.442;7.540;2022-10-16T14:23:00;18.70;99.90
42201;DHT22;27869;51.442;7.540;2022-10-16T14:25:28;18.70;99.90
42201;DHT22;27869;51.442;7.540;2022-10-16T14:28:03;18.70;99.90
42201;DHT22;27869;51.442;7.540;2022-10-16T14:30:35;18.70;99.90
42201;DHT22;27869;51.442;7.540;2022-10-16T14:33:04;18.70;99.90
42201;DHT22;27869;51.442;7.540;2022-10-16T14:35:32;18.80;99.90
42201;DHT22;27869;51.442;7.540;2022-10-16T14:38:01;18.80;99.90
42201;DHT22;27869;51.442;7.540;2022-10-16T14:40:30;18.80;99.90
42201;DHT22;27869;51.442;7.540;2022-10-16T14:42:58;18.80;99.90
42201;DHT22;27869;51.442;7.540;2022-10-16T14:45:28;18.80;99.90
42201;DHT22;27869;51.442;7.540;2022-10-16T14:47:58;18.80;99.90
42201;DHT22;27869;51.442;7.540;2022-10-16T14:50:26;18.80;99.90
42201;DHT22;27869;51.442;7.540;2022-10-16T14:52:54;18.80;99.90
42201;DHT22;27869;51.442;7.540;2022-10-16T14:55:21;18.80;99.90
42201;DHT22;27869;51.442;7.540;2022-10-16T14:57:48;18.70;99.90
42201;DHT22;27869;51.442;7.540;2022-10-16T15:00:18;18.70;99.90
42201;DHT22;27869;51.442;7.540;2022-10-16T15:02:47;18.70;99.90
42201;DHT22;27869;51.442;7.540;2022-10-16T15:05:18;18.70;99.90
42201;DHT22;27869;51.442;7.540;2022-10-16T15:07:46;18.70;99.90
42201;DHT22;27869;51.442;7.540;2022-10-16T15:10:15;18.70;99.90
42201;DHT22;27869;51.442;7.540;2022-10-16T15:12:42;18.70;99.90
42201;DHT22;27869;51.442;7.540;2022-10-16T15:15:25;18.60;99.90
42201;DHT22;27869;51.442;7.540;2022-10-16T15:17:53;18.60;99.90
42201;DHT22;27869;51.442;7.540;2022-10-16T15:20:23;18.50;99.90
42201;DHT22;27869;51.442;7.540;2022-10-16T15:22:51;18.50;99.90
42201;DHT22;27869;51.442;7.540;2022-10-16T15:25:29;18.50;99.90
42201;DHT22;27869;51.442;7.540;2022-10-16T15:27:56;18.40;99.90
42201;DHT22;27869;51.442;7.540;2022-10-16T15:30:23;18.30;99.90
42201;DHT22;27869;51.442;7.540;2022-10-16T15:32:50;18.20;99.90
42201;DHT22;27869;51.442;7.540;2022-10-16T15:35:17;18.20;99.90
42201;DHT22;27869;51.442;7.540;2022-10-16T15:37:46;18.10;99.90
42201;DHT22;27869;51.442;7.540;2022-10-16T15:40:13;18.10;99.90
42201;DHT22;27869;51.442;7.540;2022-10-16T15:42:41;18.00;99.90
42201;DHT22;27869;51.442;7.540;2022-10-16T15:45:09;17.90;99.90
42201;DHT22;27869;51.442;7.540;2022-10-16T15:47:36;17.90;99.90
42201;DHT22;27869;51.442;7.540;2022-10-16T15:50:04;17.80;99.90
42201;DHT22;27869;51.442;7.540;2022-10-16T15:52:31;17.80;99.90
42201;DHT22;27869;51.442;7.540;2022-10-16T15:54:59;17.80;99.90